Kezdőlap
METAR-TAF:

METAR-TAF

Repülőterek :

Vicebszk, Fehéroroszország

földrajzi szélesség: 55-10N, földrajzi hosszúság: 030-13E, magasság: 176 m

Jelenlegi meteorológiai megfigyelések

A jelentés 37 perccel ezelõtt készült, 10:00 UTC
Kelet-délkeleti szél 6 kt széllökések: 12 kt
Hőmérséklet 19°C
Páratartalom 21%
Légköri nyomás 1030 hPa
Látótávolság: 8000 m
Szórványos felhőzet 4000 lábon

METAR: UMII 231000Z 11003G06MPS 8000 SCT040 19/M04 Q1030 R05/D NOSIG

Idő: 13:37 (10:37 UTC)

Előrejelzés

A jelentés 42 perccel ezelõtt készült, 09:55 UTC
Az előrejelzés 23-én 10 óra UTC és 23-én 18 óra UTC között érvényes
Északkeleti szél 6 kt
Látótávolság: 8000 m
Szórványos felhőzet 2000 lábon
23-én 10 óra UTC és 23-én 18 óra UTC között ideiglenes
Kelet-délkeleti szél 6 kt széllökések: 16 kt

TAF: UMII 230955Z 2310/2318 05003MPS 8000 SCT020 TEMPO 2310/2318 11003G08MPS

Meteorológiai megfigyelések és előrejelzések több, mint 4000 repülőtéren (METAR és TAF jelentéseket).

A térképen piros és sárga pontok jelzik az elérhető meteorológiai állomásokat.

Mozgassa az egeret a pont fölött, hogy megjelenjen az állomás neve.

Azután kattintson az időjárási megfigyelések és előrejelzések megtekintéséhez.

A térkép megváltoztatása: kattintson a fekete keresztel jelölt zöld gombra ráközelítéshez, a vonallal jelölt zöld gombra távolításhoz, vagy a zöld nyilakra a szomszédos térképek eléréséhez.


METAR-TAF: